This is the latest recevied weather packets stored in our database for station/object JF7ELG-13. If no packets are shown the sender has not sent any weather packets the latest 10 day(s).
| Time | Temp. | Humidity | Pressure | Rain* | Wind** | Luminosity | Snow |
|---|---|---|---|---|---|---|---|
| 1777628920 | 17.78° C | 97% | 987.4 hPa | 0 mm | - | - | - |
| 1777628014 | 17.78° C | 97% | 987.4 hPa | 0 mm | - | - | - |
| 1777627132 | 18.33° C | 97% | 987.6 hPa | 0 mm | - | - | - |
| 1777626220 | 18.33° C | 97% | 987.8 hPa | 0 mm | - | - | - |
| 1777625331 | 18.33° C | 97% | 987.9 hPa | 0 mm | - | - | - |
| 1777624396 | 18.33° C | 97% | 988.1 hPa | 1.02 mm | - | - | - |
| 1777623512 | 18.33° C | 98% | 988.4 hPa | 1.02 mm | - | - | - |
| 1777622618 | 18.33° C | 98% | 988.7 hPa | 2.03 mm | - | - | - |
| 1777621726 | 18.33° C | 98% | 989.2 hPa | 3.05 mm | - | - | - |
| 1777620798 | 18.33° C | 98% | 989.5 hPa | 2.03 mm | - | - | - |
| 1777619903 | 18.33° C | 98% | 990.4 hPa | 4.06 mm | - | - | - |
| 1777618995 | 18.33° C | 98% | 990.9 hPa | 4.06 mm | - | - | - |
| 1777618104 | 17.78° C | 98% | 991.2 hPa | 4.06 mm | - | - | - |
| 1777617210 | 17.78° C | 98% | 991.7 hPa | 4.06 mm | - | - | - |
| 1777616302 | 17.78° C | 98% | 992.3 hPa | 2.03 mm | - | - | - |
| 1777615442 | 17.78° C | 98% | 992.9 hPa | 1.02 mm | - | - | - |
| 1777614503 | 17.78° C | 98% | 993.4 hPa | 3.05 mm | - | - | - |
| 1777613618 | 17.78° C | 98% | 993.9 hPa | 6.1 mm | - | - | - |
| 1777612704 | 17.22° C | 98% | 994.6 hPa | 7.87 mm | - | - | - |
| 1777611817 | 16.67° C | 98% | 995 hPa | 8.89 mm | - | - | - |
| 1777610895 | 16.67° C | 98% | 995.7 hPa | 8.89 mm | - | - | - |
| 1777610001 | 16.67° C | 98% | 996.8 hPa | 10.92 mm | - | - | - |
| 1777609125 | 16.67° C | 98% | 997.2 hPa | 14.99 mm | - | - | - |
| 1777608204 | 16.67° C | 98% | 998.2 hPa | 21.08 mm | - | - | - |
| 1777607317 | 16.67° C | 98% | 999.5 hPa | 25.91 mm | - | - | - |
* Rain latest hour (hover to see other rain measurements)
** Current wind speed in m/s (hover to see current wind gust speed)